Salonica, Greece
Current Conditions -  °F | °C
As of 11:20 PM on Friday 24 Oct 2014 (Local Time) from LGTS Reporting Station
Moderate Rain Moderate Rain  
Wind Chill: 55°   Ceiling: 3000
Heat Index: 55°   Visibility: 6mi
Dew Point: 50°   Wind: 16mph
Humidity: 82%   Direction: 320°NW
Pressure: 29.65"   Gusts: 31mph
Location:  40.52°N, 22.97°E
Report Text: LGTS 242020Z 32014G27KT 9000 RA FEW016CB FEW018TCU BKN030 OVC080 13/10 Q1004 TEMPO 3000 TSRA
Loading
Personal Weather Stations






























Interactive Weather Map
Tropical Storm Tracking
New forecast layout! Learn more

10-Day Weather Forecast

Advertisements
Track Severe Weather on mobile